Time;durP1;ratioP1;P1;durP2;ratioP2;P2;SDS_P1;SDS_P2;PMS_P1;PMS_P2;Temp;Humidity;BMP_temperature;BMP_pressure;BME280_temperature;BME280_humidity;BME280_pressure;Samples;Min_cycle;Max_cycle;Signal;HPM_P1;HPM_P2
2023/04/05 00:00:26;;;;;;;9.38;3.28;;;-1.20;99.90;;;;;;5071464;28;20483;-51
2023/04/05 00:02:54;;;;;;;10.43;3.65;;;-1.20;99.90;;;;;;5080915;28;20040;-50
2023/04/05 00:05:28;;;;;;;6.53;3.63;;;-1.20;99.90;;;;;;5084082;28;20037;-50
2023/04/05 00:07:59;;;;;;;8.35;3.60;;;-1.20;99.90;;;;;;5085586;28;20060;-49
2023/04/05 00:10:30;;;;;;;8.90;3.65;;;-1.20;99.90;;;;;;5071581;28;20508;-48
2023/04/05 00:12:57;;;;;;;6.10;3.45;;;-1.20;99.90;;;;;;5071014;28;20076;-50
2023/04/05 00:15:27;;;;;;;6.05;3.65;;;-1.20;99.90;;;;;;5070840;28;20048;-48
2023/04/05 00:17:54;;;;;;;8.38;4.03;;;-1.20;99.90;;;;;;5071938;28;20025;-48
2023/04/05 00:20:37;;;;;;;9.15;4.47;;;-1.20;99.90;;;;;;5067469;22;20562;-55
2023/04/05 00:23:05;;;;;;;8.32;3.63;;;-1.30;99.90;;;;;;5031339;28;20512;-53
2023/04/05 00:25:32;;;;;;;6.20;3.58;;;-1.30;99.90;;;;;;5030495;28;20041;-51
2023/04/05 00:28:00;;;;;;;7.78;4.25;;;-1.40;99.90;;;;;;5045720;28;20046;-54
2023/04/05 00:30:27;;;;;;;9.60;4.38;;;-1.40;99.90;;;;;;5012150;28;20062;-52
2023/04/05 00:32:54;;;;;;;;;;;-1.30;99.90;;;;;;4994267;28;20507;-54
2023/04/05 00:35:21;;;;;;;11.13;3.58;;;-1.40;99.90;;;;;;4977219;28;20328;-56
2023/04/05 00:37:48;;;;;;;6.15;3.10;;;-1.40;99.90;;;;;;5006518;28;20057;-52
2023/04/05 00:40:15;;;;;;;4.38;2.83;;;-1.40;99.90;;;;;;5017542;28;20037;-55
2023/04/05 00:42:41;;;;;;;6.50;3.92;;;-1.40;99.90;;;;;;5005364;28;20755;-54
2023/04/05 00:45:08;;;;;;;6.72;4.40;;;-1.50;99.90;;;;;;5012340;28;20402;-53
2023/04/05 00:47:35;;;;;;;10.48;4.68;;;-1.50;99.90;;;;;;4993155;28;20046;-50
2023/04/05 00:50:02;;;;;;;;;;;-1.50;99.90;;;;;;5011193;28;20449;-51
2023/04/05 00:52:29;;;;;;;7.15;3.92;;;-1.60;99.90;;;;;;5003805;28;19971;-54
2023/04/05 00:54:56;;;;;;;7.10;4.32;;;-1.60;99.90;;;;;;4994785;28;20052;-52
2023/04/05 00:57:25;;;;;;;6.95;4.30;;;-1.60;99.90;;;;;;4996838;28;20095;-52
2023/04/05 00:59:52;;;;;;;11.63;4.50;;;-1.60;99.90;;;;;;5031861;28;20057;-52
2023/04/05 01:02:32;;;;;;;8.80;4.57;;;-1.60;99.90;;;;;;5019295;28;20049;-51
2023/04/05 01:05:07;;;;;;;6.35;3.70;;;-1.60;99.90;;;;;;4994245;28;20077;-54
2023/04/05 01:07:49;;;;;;;6.25;3.95;;;-1.60;99.90;;;;;;5011236;28;20092;-54
2023/04/05 01:10:19;;;;;;;5.75;3.58;;;-1.60;99.90;;;;;;4994318;28;20045;-52
2023/04/05 01:12:46;;;;;;;7.22;4.07;;;-1.60;99.90;;;;;;5007276;28;20049;-54
2023/04/05 01:15:13;;;;;;;10.98;4.40;;;-1.60;99.90;;;;;;5013744;28;20490;-56
2023/04/05 01:17:41;;;;;;;11.52;3.35;;;-1.70;99.90;;;;;;5011246;28;20073;-54
2023/04/05 01:20:10;;;;;;;6.63;3.72;;;-1.60;99.90;;;;;;4993598;28;20057;-53
2023/04/05 01:22:46;;;;;;;5.65;3.63;;;-1.70;99.90;;;;;;5026212;28;20434;-52
2023/04/05 01:25:27;;;;;;;7.43;3.83;;;-1.60;99.90;;;;;;5010589;28;20107;-52
2023/04/05 01:27:56;;;;;;;5.15;3.28;;;-1.70;99.90;;;;;;4993945;28;20049;-54
2023/04/05 01:30:30;;;;;;;8.90;3.72;;;-1.70;99.90;;;;;;4994952;28;20046;-52
2023/04/05 01:33:04;;;;;;;7.80;3.72;;;-1.60;99.90;;;;;;5031770;28;20453;-53
2023/04/05 01:35:44;;;;;;;7.18;4.00;;;-1.60;99.90;;;;;;5022486;28;20038;-53
2023/04/05 01:38:16;;;;;;;7.55;3.80;;;-1.50;99.90;;;;;;5010688;28;20049;-56
2023/04/05 01:40:44;;;;;;;5.97;3.30;;;-1.40;99.90;;;;;;4997583;28;20045;-51
2023/04/05 01:43:15;;;;;;;7.57;4.10;;;-1.40;99.90;;;;;;5022300;28;20033;-51
2023/04/05 01:45:44;;;;;;;10.10;3.90;;;-1.60;99.90;;;;;;5010066;28;20088;-52
2023/04/05 01:48:12;;;;;;;5.68;3.60;;;-1.70;99.90;;;;;;4993902;28;20569;-53
2023/04/05 01:50:39;;;;;;;6.40;4.00;;;-1.80;99.90;;;;;;5009103;28;20454;-52
2023/04/05 01:53:06;;;;;;;;;;;-1.70;99.90;;;;;;4994229;28;20049;-56
2023/04/05 01:55:34;;;;;;;8.80;4.00;;;-1.70;99.90;;;;;;5014819;28;20360;-51
2023/04/05 01:58:01;;;;;;;7.25;3.95;;;-1.70;99.90;;;;;;5030944;28;20295;-53
2023/04/05 02:00:28;;;;;;;8.43;3.67;;;-1.60;99.90;;;;;;4996322;28;20053;-52
2023/04/05 02:02:55;;;;;;;9.50;4.47;;;-1.70;99.90;;;;;;4993745;28;20057;-54
2023/04/05 02:05:22;;;;;;;6.63;3.80;;;-1.70;99.90;;;;;;4992520;28;20060;-54
2023/04/05 02:07:49;;;;;;;9.13;3.97;;;-1.80;99.90;;;;;;5010975;28;20073;-51
2023/04/05 02:10:17;;;;;;;8.65;4.47;;;-1.80;99.90;;;;;;5018324;28;20033;-53
2023/04/05 02:12:43;;;;;;;5.38;3.63;;;-1.90;99.90;;;;;;5013279;28;20049;-55
2023/04/05 02:15:11;;;;;;;8.00;3.50;;;-1.90;99.90;;;;;;5011686;28;20041;-52
2023/04/05 02:17:38;;;;;;;6.03;3.05;;;-1.90;99.90;;;;;;5008423;28;20510;-52
2023/04/05 02:20:11;;;;;;;6.00;3.90;;;-1.90;99.90;;;;;;5025648;28;20502;-52
2023/04/05 02:22:38;;;;;;;7.70;3.53;;;-1.80;99.90;;;;;;5029588;28;20445;-50
2023/04/05 02:25:09;;;;;;;10.45;4.28;;;-1.90;99.90;;;;;;4993400;28;20140;-50
2023/04/05 02:27:37;;;;;;;7.35;3.80;;;-1.90;99.90;;;;;;4992219;28;20034;-56
2023/04/05 02:30:04;;;;;;;10.00;3.80;;;-1.90;99.90;;;;;;4992759;28;20116;-54
2023/04/05 02:32:31;;;;;;;5.65;3.58;;;-1.90;99.90;;;;;;4991224;28;20050;-54
2023/04/05 02:34:58;;;;;;;5.80;3.55;;;-1.90;99.90;;;;;;5009385;28;20052;-50
2023/04/05 02:37:26;;;;;;;5.32;2.75;;;-1.90;99.90;;;;;;5009697;28;20049;-55
2023/04/05 02:39:53;;;;;;;11.05;3.72;;;-2.00;99.90;;;;;;4991552;28;20542;-54
2023/04/05 02:42:20;;;;;;;6.28;3.83;;;-2.00;99.90;;;;;;4992101;28;20506;-52
2023/04/05 02:44:50;;;;;;;8.18;3.60;;;-2.00;99.90;;;;;;5000355;28;20056;-53
2023/04/05 02:47:20;;;;;;;8.35;3.95;;;-2.10;99.90;;;;;;5000227;28;20053;-51
2023/04/05 02:49:52;;;;;;;9.38;4.35;;;-2.10;99.90;;;;;;5000358;28;20076;-51
2023/04/05 02:52:19;;;;;;;7.88;4.38;;;-2.20;99.90;;;;;;5000586;28;20157;-54
2023/04/05 02:54:47;;;;;;;9.73;4.50;;;-2.10;99.90;;;;;;4999777;28;20387;-53
2023/04/05 02:57:18;;;;;;;6.30;3.80;;;-2.10;99.90;;;;;;5000035;28;20076;-55
2023/04/05 02:59:53;;;;;;;8.90;4.40;;;-2.10;99.90;;;;;;4992687;28;20510;-55
2023/04/05 03:02:20;;;;;;;7.85;4.10;;;-2.00;99.90;;;;;;4992510;28;20041;-51
2023/04/05 03:04:52;;;;;;;9.45;4.97;;;-2.00;99.90;;;;;;5011650;28;20103;-54
2023/04/05 03:07:20;;;;;;;8.00;5.05;;;-2.00;99.90;;;;;;5003035;28;20038;-51
2023/04/05 03:09:47;;;;;;;9.95;6.25;;;-2.00;99.90;;;;;;5013705;28;20044;-53
2023/04/05 03:12:15;;;;;;;9.15;5.45;;;-2.00;99.90;;;;;;4995284;28;20064;-50
2023/04/05 03:14:42;;;;;;;;;;;-2.00;99.90;;;;;;4996216;28;20049;-53
2023/04/05 03:17:12;;;;;;;10.90;5.45;;;-2.00;99.90;;;;;;5008184;28;19979;-55
2023/04/05 03:19:44;;;;;;;11.98;6.32;;;-2.00;99.90;;;;;;4995438;28;20050;-54
2023/04/05 03:22:22;;;;;;;11.35;6.50;;;-2.00;99.90;;;;;;4992940;28;20395;-51
2023/04/05 03:24:49;;;;;;;11.88;5.65;;;-2.00;99.90;;;;;;4995237;28;20048;-52
2023/04/05 03:27:18;;;;;;;8.90;5.35;;;-2.10;99.90;;;;;;4994045;28;20498;-54
2023/04/05 03:30:08;;;;;;;14.75;5.88;;;-2.10;99.90;;;;;;4993374;28;20080;-52
2023/04/05 03:32:40;;;;;;;13.18;5.47;;;-2.20;99.90;;;;;;5003331;28;20042;-55
2023/04/05 03:35:17;;;;;;;10.45;5.53;;;-2.30;99.90;;;;;;4993996;28;20046;-53
2023/04/05 03:37:46;;;;;;;9.98;5.05;;;-2.30;99.90;;;;;;5003566;28;20386;-57
2023/04/05 03:40:13;;;;;;;;;;;-2.40;99.90;;;;;;4989922;28;20070;-54
2023/04/05 03:42:40;;;;;;;9.68;4.22;;;-2.50;99.90;;;;;;5001157;28;20465;-55
2023/04/05 03:45:07;;;;;;;5.03;2.72;;;-2.50;99.90;;;;;;4984316;28;20104;-52
2023/04/05 03:47:34;;;;;;;8.68;3.90;;;-2.60;99.90;;;;;;4996034;28;20053;-55
2023/04/05 03:50:05;;;;;;;7.43;3.90;;;-2.50;99.90;;;;;;4996039;28;20092;-51
2023/04/05 03:52:31;;;;;;;;;;;-2.50;99.90;;;;;;5010109;28;20038;-56
2023/04/05 03:54:59;;;;;;;7.07;3.95;;;-2.50;99.90;;;;;;4984659;28;20378;-52
2023/04/05 03:57:29;;;;;;;9.32;4.65;;;-2.50;99.90;;;;;;4991088;28;20046;-53
2023/04/05 03:59:59;;;;;;;7.07;3.55;;;-2.50;99.90;;;;;;5003289;28;20041;-54
2023/04/05 04:02:29;;;;;;;8.10;4.15;;;-2.50;99.90;;;;;;5007380;28;20155;-53
2023/04/05 04:04:56;;;;;;;7.53;4.10;;;-2.50;99.90;;;;;;4988278;28;20042;-54
2023/04/05 04:07:26;;;;;;;13.48;3.97;;;-2.50;99.90;;;;;;4994711;28;20100;-55
2023/04/05 04:09:54;;;;;;;9.63;4.43;;;-2.60;99.90;;;;;;5011492;28;20156;-53
2023/04/05 04:12:21;;;;;;;6.65;3.65;;;-2.30;99.90;;;;;;4994217;28;20565;-54
2023/04/05 04:14:55;;;;;;;6.20;3.58;;;-2.70;99.90;;;;;;4993976;28;20049;-51
2023/04/05 04:17:40;;;;;;;9.50;5.00;;;-2.70;99.90;;;;;;4990673;28;20064;-54
2023/04/05 04:20:27;;;;;;;11.75;5.45;;;-2.60;99.90;;;;;;5008657;28;20053;-54
2023/04/05 04:23:18;;;;;;;9.75;5.20;;;-2.60;99.90;;;;;;5002985;28;20176;-51
2023/04/05 04:26:01;;;;;;;12.98;5.60;;;-2.60;99.90;;;;;;4974886;28;20190;-56
2023/04/05 04:28:52;;;;;;;9.77;4.53;;;-2.60;99.90;;;;;;4994189;28;20057;-52
2023/04/05 04:31:25;;;;;;;9.65;4.40;;;-2.60;99.90;;;;;;4997131;28;20038;-53
2023/04/05 04:33:55;;;;;;;10.55;4.15;;;-2.50;99.90;;;;;;5018778;28;20053;-52
2023/04/05 04:36:41;;;;;;;8.80;4.40;;;-2.50;99.90;;;;;;4992263;28;20038;-53
2023/04/05 04:39:38;;;;;;;18.00;5.60;;;-2.50;99.90;;;;;;4989657;28;20498;-53
2023/04/05 04:42:32;;;;;;;9.13;4.43;;;-2.40;99.90;;;;;;5008118;28;20115;-51
2023/04/05 04:45:25;;;;;;;7.38;5.10;;;-2.70;99.90;;;;;;4992846;28;20056;-52
2023/04/05 04:48:03;;;;;;;;;;;-2.70;99.90;;;;;;4991667;28;20046;-54
2023/04/05 04:50:57;;;;;;;8.05;4.25;;;-2.80;99.90;;;;;;5011661;28;19943;-56
2023/04/05 04:53:25;;;;;;;6.65;4.20;;;-2.70;99.90;;;;;;5015655;28;20499;-53
2023/04/05 04:55:54;;;;;;;10.13;4.65;;;-2.80;99.90;;;;;;5010199;28;20049;-53
2023/04/05 04:58:20;;;;;;;11.20;4.80;;;-2.70;99.90;;;;;;5013523;28;20096;-53
2023/04/05 05:00:58;;;;;;;12.63;4.53;;;-2.60;99.90;;;;;;4984590;28;20045;-56
2023/04/05 05:03:25;;;;;;;5.97;3.88;;;-2.60;99.90;;;;;;5023422;28;20290;-55
2023/04/05 05:05:52;;;;;;;8.32;4.68;;;-2.50;99.90;;;;;;5031201;28;20041;-52
2023/04/05 05:08:22;;;;;;;13.07;5.45;;;-2.50;99.90;;;;;;4993754;28;20133;-56
2023/04/05 05:10:52;;;;;;;7.90;4.38;;;-2.50;99.90;;;;;;5013967;28;20076;-54
2023/04/05 05:13:19;;;;;;;16.55;6.28;;;-2.40;99.90;;;;;;5023145;28;20073;-56
2023/04/05 05:15:47;;;;;;;9.45;6.03;;;-2.40;99.90;;;;;;5028057;28;20049;-52
2023/04/05 05:18:14;;;;;;;17.85;6.38;;;-2.30;99.90;;;;;;5009377;28;20092;-55
2023/04/05 05:20:41;;;;;;;12.23;6.10;;;-2.20;99.90;;;;;;5010716;28;20050;-55
2023/04/05 05:23:11;;;;;;;13.93;5.22;;;-2.20;99.90;;;;;;5011584;28;20082;-53
2023/04/05 05:26:02;;;;;;;16.50;5.57;;;-2.20;99.90;;;;;;5002573;28;20121;-50
2023/04/05 05:28:29;;;;;;;13.65;5.15;;;-2.10;99.90;;;;;;5030706;28;20038;-56
2023/04/05 05:30:56;;;;;;;10.07;4.93;;;-2.10;99.90;;;;;;5022204;28;20498;-55
2023/04/05 05:33:24;;;;;;;6.85;3.17;;;-2.20;99.90;;;;;;4999897;28;20636;-57
2023/04/05 05:35:51;;;;;;;11.63;5.65;;;-2.10;99.90;;;;;;5010561;28;20038;-57
2023/04/05 05:38:18;;;;;;;;;;;-2.00;99.90;;;;;;5002162;28;20037;-56
2023/04/05 05:40:45;;;;;;;13.90;7.65;;;-2.00;99.90;;;;;;5026954;28;20393;-57
2023/04/05 05:43:11;;;;;;;16.48;8.63;;;-1.90;99.90;;;;;;5020436;28;21628;-56
2023/04/05 05:45:38;;;;;;;11.60;4.95;;;-1.80;99.90;;;;;;5020489;28;20045;-57
2023/04/05 05:48:05;;;;;;;16.02;6.70;;;-1.50;99.90;;;;;;5020013;28;20042;-56
2023/04/05 05:50:32;;;;;;;11.18;6.50;;;-1.70;99.90;;;;;;5018552;28;20044;-55
2023/04/05 05:52:59;;;;;;;12.77;7.82;;;-1.70;99.90;;;;;;5010608;28;20050;-57
2023/04/05 05:55:27;;;;;;;23.50;10.23;;;-1.60;99.90;;;;;;5009259;28;20042;-56
2023/04/05 05:57:54;;;;;;;21.70;11.82;;;-1.60;99.90;;;;;;5005690;28;20092;-56
2023/04/05 06:00:21;;;;;;;18.42;10.90;;;-1.50;99.90;;;;;;5021346;28;20134;-56
2023/04/05 06:02:48;;;;;;;15.63;9.02;;;-1.50;99.90;;;;;;5014096;28;20045;-56
2023/04/05 06:05:15;;;;;;;;;;;-1.50;99.90;;;;;;5010673;28;20459;-54
2023/04/05 06:07:42;;;;;;;19.33;8.70;;;-1.50;99.90;;;;;;5010226;28;20400;-54
2023/04/05 06:10:10;;;;;;;10.88;6.43;;;-1.40;99.90;;;;;;5002571;28;20046;-53
2023/04/05 06:12:37;;;;;;;15.57;9.27;;;-1.30;99.90;;;;;;5011567;28;20108;-55
2023/04/05 06:15:08;;;;;;;21.67;9.90;;;-1.30;99.90;;;;;;5007339;28;20042;-58
2023/04/05 06:17:40;;;;;;;32.72;14.27;;;-1.30;99.90;;;;;;5016090;28;20053;-54
2023/04/05 06:20:10;;;;;;;20.48;10.73;;;-1.20;99.90;;;;;;5025740;22;20415;-48
2023/04/05 06:23:26;;;;;;;23.40;10.88;;;-1.20;99.90;;;;;;4987000;28;20079;-50
2023/04/05 06:25:52;;;;;;;26.10;12.57;;;-1.10;99.90;;;;;;5028952;28;20115;-50
2023/04/05 06:28:19;;;;;;;15.10;7.35;;;-1.10;99.90;;;;;;5027946;28;20073;-50
2023/04/05 06:30:46;;;;;;;18.55;9.32;;;-1.00;99.90;;;;;;5046189;28;20102;-49
2023/04/05 06:33:13;;;;;;;23.33;10.13;;;-1.00;99.90;;;;;;5012760;28;20119;-49
2023/04/05 06:35:39;;;;;;;22.50;7.15;;;-0.90;99.90;;;;;;5030513;28;20176;-50
2023/04/05 06:38:06;;;;;;;17.52;9.38;;;-0.80;99.90;;;;;;5028721;28;20045;-49
2023/04/05 06:40:33;;;;;;;10.73;6.25;;;-0.80;99.90;;;;;;5053956;28;20390;-48
2023/04/05 06:42:59;;;;;;;15.63;9.23;;;-0.70;99.90;;;;;;5045233;28;20407;-47
2023/04/05 06:45:30;;;;;;;18.13;9.45;;;-0.60;99.90;;;;;;5015202;28;20091;-47
2023/04/05 06:47:57;;;;;;;17.17;8.57;;;-0.50;99.90;;;;;;5048979;28;20045;-50
2023/04/05 06:50:24;;;;;;;20.77;7.78;;;-0.40;99.90;;;;;;5034142;28;20391;-49
2023/04/05 06:52:50;;;;;;;16.35;8.60;;;-0.30;99.90;;;;;;5032800;28;20411;-50
2023/04/05 06:55:17;;;;;;;9.05;6.15;;;-0.20;99.90;;;;;;5026680;28;20041;-50
2023/04/05 06:57:44;;;;;;;9.77;5.07;;;-0.10;99.90;;;;;;5028817;28;20510;-47
2023/04/05 07:00:12;;;;;;;13.63;7.55;;;0.10;99.90;;;;;;5052094;28;20061;-49
2023/04/05 07:02:38;;;;;;;14.45;7.25;;;0.20;99.90;;;;;;5040903;28;20049;-49
2023/04/05 07:05:06;;;;;;;9.32;4.50;;;0.30;99.90;;;;;;5034752;28;20068;-50
2023/04/05 07:07:32;;;;;;;9.18;5.57;;;0.40;99.90;;;;;;5027285;28;20038;-51
2023/04/05 07:09:59;;;;;;;16.25;5.70;;;0.50;99.90;;;;;;5033802;28;20045;-48
2023/04/05 07:12:26;;;;;;;9.02;5.25;;;0.60;99.90;;;;;;5031105;28;20056;-49
2023/04/05 07:14:52;;;;;;;8.48;5.38;;;0.60;99.90;;;;;;5047672;28;20041;-49
2023/04/05 07:17:19;;;;;;;6.57;3.95;;;0.70;99.90;;;;;;5039004;28;20049;-49
2023/04/05 07:19:46;;;;;;;8.63;5.32;;;0.90;99.90;;;;;;5033711;28;20443;-49
2023/04/05 07:22:13;;;;;;;14.45;5.80;;;1.00;99.90;;;;;;5026580;28;20435;-50
2023/04/05 07:24:40;;;;;;;8.82;5.25;;;1.10;99.90;;;;;;5053679;28;20037;-49
2023/04/05 07:27:06;;;;;;;7.25;3.95;;;1.10;99.90;;;;;;5036734;28;20104;-49
2023/04/05 07:29:37;;;;;;;9.23;4.15;;;1.20;99.90;;;;;;5033555;28;20107;-49
2023/04/05 07:32:03;;;;;;;8.40;4.93;;;1.30;99.90;;;;;;5027115;28;20473;-50
2023/04/05 07:34:30;;;;;;;8.25;4.05;;;1.40;99.90;;;;;;5035660;28;20382;-49
2023/04/05 07:36:57;;;;;;;7.88;4.05;;;1.50;99.90;;;;;;5034030;28;20458;-50
2023/04/05 07:39:24;;;;;;;9.00;5.03;;;1.70;99.90;;;;;;5033638;28;20041;-51
2023/04/05 07:41:50;;;;;;;7.82;5.18;;;1.80;99.90;;;;;;5029990;28;20069;-51
2023/04/05 07:44:17;;;;;;;14.43;6.78;;;1.90;99.90;;;;;;5033574;28;20092;-53
2023/04/05 07:46:44;;;;;;;7.43;3.50;;;2.00;99.90;;;;;;5033947;28;20091;-49
2023/04/05 07:49:14;;;;;;;11.23;5.07;;;2.00;99.90;;;;;;5052294;28;20094;-51
2023/04/05 07:51:42;;;;;;;9.55;4.93;;;2.20;99.90;;;;;;5033556;28;20041;-49
2023/04/05 07:54:09;;;;;;;10.50;5.07;;;2.30;99.90;;;;;;5051677;28;20048;-49
2023/04/05 07:56:37;;;;;;;8.43;5.07;;;2.40;99.90;;;;;;5032029;28;20098;-51
2023/04/05 07:59:03;;;;;;;10.18;5.30;;;2.50;99.90;;;;;;5018900;28;20080;-49
2023/04/05 08:01:30;;;;;;;6.53;4.63;;;2.50;99.90;;;;;;5031248;28;20466;-49
2023/04/05 08:03:57;;;;;;;8.23;4.82;;;2.60;99.90;;;;;;5031435;28;20053;-50
2023/04/05 08:06:25;;;;;;;8.85;5.10;;;2.80;99.90;;;;;;5024590;28;20401;-49
2023/04/05 08:08:52;;;;;;;8.82;5.45;;;2.80;99.90;;;;;;5027918;28;20069;-51
2023/04/05 08:11:20;;;;;;;6.82;4.75;;;2.90;99.90;;;;;;5032831;28;20049;-50
2023/04/05 08:13:47;;;;;;;9.50;4.80;;;3.00;99.90;;;;;;5031226;28;20422;-49
2023/04/05 08:16:14;;;;;;;10.07;5.38;;;3.00;99.90;;;;;;5024263;28;20048;-48
2023/04/05 08:18:41;;;;;;;9.98;5.35;;;3.10;99.90;;;;;;5041238;28;20520;-52
2023/04/05 08:21:07;;;;;;;11.23;5.15;;;3.10;99.90;;;;;;5031621;28;20077;-51
2023/04/05 08:23:34;;;;;;;7.13;3.78;;;3.20;99.90;;;;;;5032058;28;20084;-51
2023/04/05 08:26:01;;;;;;;10.95;5.10;;;3.20;99.90;;;;;;5031990;28;20045;-52
2023/04/05 08:28:27;;;;;;;16.88;5.20;;;3.40;99.90;;;;;;5044756;28;20037;-50
2023/04/05 08:30:56;;;;;;;8.70;4.88;;;3.60;99.90;;;;;;5032271;28;20041;-49
2023/04/05 08:33:25;;;;;;;7.72;5.43;;;3.70;99.90;;;;;;5031681;28;20422;-51
2023/04/05 08:35:52;;;;;;;8.00;5.45;;;3.80;99.90;;;;;;5024803;28;20418;-50
2023/04/05 08:38:19;;;;;;;9.25;5.05;;;3.90;99.90;;;;;;5031305;28;20120;-49
2023/04/05 08:40:46;;;;;;;8.63;5.13;;;4.00;99.90;;;;;;5030863;28;20037;-49
2023/04/05 08:43:37;;;;;;;6.97;4.82;;;4.20;99.90;;;;;;5031756;28;20050;-49
2023/04/05 08:46:07;;;;;;;8.45;5.10;;;4.30;99.70;;;;;;5026612;28;20073;-49
2023/04/05 08:48:35;;;;;;;5.82;4.63;;;4.40;99.60;;;;;;5030775;28;20047;-50
2023/04/05 08:51:03;;;;;;;8.20;4.80;;;4.50;99.90;;;;;;5031201;28;20340;-50
2023/04/05 08:53:32;;;;;;;9.48;5.22;;;4.60;98.90;;;;;;5031451;28;20099;-49
2023/04/05 08:56:00;;;;;;;7.50;4.60;;;4.70;99.70;;;;;;5036580;28;20029;-50
2023/04/05 08:58:30;;;;;;;7.40;4.85;;;4.90;99.90;;;;;;5041711;28;20037;-50
2023/04/05 09:00:58;;;;;;;8.52;4.93;;;4.90;98.60;;;;;;5032216;28;20103;-50
2023/04/05 09:03:36;;;;;;;7.25;4.50;;;4.90;97.40;;;;;;5032614;28;20383;-49
2023/04/05 09:06:06;;;;;;;9.20;5.32;;;5.00;99.00;;;;;;5031801;28;20076;-51
2023/04/05 09:08:33;;;;;;;7.30;4.90;;;5.20;98.70;;;;;;5038461;28;20033;-49
2023/04/05 09:10:59;;;;;;;9.40;5.45;;;5.20;97.70;;;;;;5049629;28;20094;-49
2023/04/05 09:13:26;;;;;;;6.75;4.43;;;5.20;98.40;;;;;;5030620;28;20049;-50
2023/04/05 09:15:53;;;;;;;10.43;4.83;;;5.20;97.80;;;;;;5031227;28;20042;-49
2023/04/05 09:18:20;;;;;;;9.27;5.10;;;5.20;97.10;;;;;;5036654;28;20291;-50
2023/04/05 09:21:11;;;;;;;6.03;4.60;;;5.10;96.70;;;;;;5047542;28;20056;-50
2023/04/05 09:23:50;;;;;;;10.73;4.65;;;5.30;96.90;;;;;;5031490;28;20053;-49
2023/04/05 09:26:20;;;;;;;8.57;5.00;;;5.30;96.10;;;;;;5032285;28;20125;-49
2023/04/05 09:28:50;;;;;;;6.97;4.70;;;5.30;95.20;;;;;;5033191;28;20099;-50
2023/04/05 09:31:34;;;;;;;8.20;4.68;;;5.30;95.30;;;;;;5040464;28;20037;-51
2023/04/05 09:34:07;;;;;;;7.80;4.75;;;5.30;96.40;;;;;;5012055;28;20453;-50
2023/04/05 09:36:35;;;;;;;10.52;5.70;;;5.40;95.00;;;;;;5035630;28;20041;-49
2023/04/05 09:39:06;;;;;;;7.22;5.25;;;5.50;95.80;;;;;;5051005;28;20498;-49
2023/04/05 09:41:34;;;;;;;10.18;5.57;;;5.50;94.60;;;;;;5035144;28;20057;-54
2023/04/05 09:44:01;;;;;;;11.80;5.30;;;5.60;95.70;;;;;;5031156;28;20053;-50
2023/04/05 09:46:33;;;;;;;7.53;4.57;;;5.60;95.50;;;;;;5021559;28;20045;-49
2023/04/05 09:49:00;;;;;;;7.15;5.03;;;5.70;94.90;;;;;;5050818;28;20486;-52
2023/04/05 09:51:35;;;;;;;7.25;5.15;;;5.70;93.10;;;;;;5032652;28;20049;-50
2023/04/05 09:54:05;;;;;;;7.53;4.82;;;5.80;94.60;;;;;;5010693;28;20518;-50
2023/04/05 09:56:37;;;;;;;7.03;5.10;;;5.80;93.00;;;;;;5044154;28;20126;-50
2023/04/05 09:59:11;;;;;;;7.65;4.70;;;5.90;94.40;;;;;;5048649;28;20045;-51
2023/04/05 10:01:42;;;;;;;7.00;4.88;;;6.00;92.30;;;;;;5030796;28;20049;-51
2023/04/05 10:04:09;;;;;;;9.65;5.40;;;6.00;93.00;;;;;;5032937;28;20049;-53
2023/04/05 10:06:38;;;;;;;7.95;4.93;;;6.00;91.60;;;;;;5050477;28;20580;-50
2023/04/05 10:09:06;;;;;;;12.02;5.35;;;6.20;92.10;;;;;;5044973;28;20441;-49
2023/04/05 10:11:33;;;;;;;6.88;5.20;;;6.20;93.90;;;;;;5025539;28;20037;-51
2023/04/05 10:14:02;;;;;;;;;;;6.30;93.40;;;;;;5025497;28;20052;-50
2023/04/05 10:16:33;;;;;;;8.13;4.97;;;6.40;93.30;;;;;;5050634;28;19974;-49
2023/04/05 10:19:01;;;;;;;6.82;4.20;;;6.50;94.00;;;;;;5042272;28;20505;-49
2023/04/05 10:21:31;;;;;;;10.10;4.85;;;6.20;91.10;;;;;;5024218;28;20589;-49
2023/04/05 10:24:22;;;;;;;8.50;5.07;;;6.70;92.20;;;;;;5027081;28;20041;-52
2023/04/05 10:27:03;;;;;;;9.40;5.32;;;6.70;91.80;;;;;;5031136;28;20077;-50
2023/04/05 10:29:51;;;;;;;8.57;4.82;;;6.80;93.20;;;;;;5029566;28;20042;-50
2023/04/05 10:32:52;;;;;;;7.10;4.72;;;6.70;92.70;;;;;;5034824;28;20060;-49
2023/04/05 10:35:54;;;;;;;10.93;5.30;;;6.70;90.90;;;;;;4985263;28;20058;-51
2023/04/05 10:38:26;;;;;;;7.65;4.85;;;6.80;90.90;;;;;;4998722;28;20695;-49
2023/04/05 10:40:56;;;;;;;7.93;5.68;;;6.90;91.10;;;;;;5049770;28;20087;-50
2023/04/05 10:43:25;;;;;;;7.15;5.30;;;6.90;91.50;;;;;;5039627;28;20050;-50
2023/04/05 10:45:54;;;;;;;9.15;5.10;;;6.90;91.30;;;;;;5032366;28;20047;-51
2023/04/05 10:48:45;;;;;;;8.65;5.25;;;6.90;92.00;;;;;;5019608;28;20047;-50
2023/04/05 10:51:14;;;;;;;11.48;5.13;;;6.90;91.40;;;;;;5029421;28;20046;-53
2023/04/05 10:53:41;;;;;;;6.80;4.68;;;6.90;91.60;;;;;;5016185;28;20069;-50
2023/04/05 10:56:08;;;;;;;6.88;5.05;;;7.00;89.70;;;;;;5047740;28;20029;-50
2023/04/05 10:58:36;;;;;;;7.72;4.35;;;7.00;90.10;;;;;;5032245;28;20045;-49
2023/04/05 11:01:03;;;;;;;8.40;5.05;;;7.20;90.50;;;;;;5030040;28;20092;-48
2023/04/05 11:03:50;;;;;;;8.27;4.40;;;7.30;89.60;;;;;;5027890;28;20374;-48
2023/04/05 11:06:29;;;;;;;8.02;4.72;;;7.40;88.20;;;;;;5040624;28;20048;-50
2023/04/05 11:09:09;;;;;;;8.43;4.60;;;7.30;88.80;;;;;;5022314;28;20557;-50
2023/04/05 11:11:42;;;;;;;7.95;4.97;;;7.30;89.30;;;;;;5026421;28;20042;-52
2023/04/05 11:14:24;;;;;;;8.27;5.38;;;7.20;89.30;;;;;;5029374;28;20072;-51
2023/04/05 11:16:58;;;;;;;7.82;5.22;;;7.20;88.40;;;;;;5021318;28;20038;-47
2023/04/05 11:19:45;;;;;;;6.05;4.90;;;7.20;87.60;;;;;;5036061;28;20463;-48
2023/04/05 11:22:26;;;;;;;11.15;5.35;;;7.40;86.90;;;;;;5025761;28;20057;-50
2023/04/05 11:25:01;;;;;;;;;;;7.50;85.70;;;;;;5031328;28;20096;-51
2023/04/05 11:27:30;;;;;;;7.32;5.18;;;7.60;88.90;;;;;;5027237;28;20337;-50
2023/04/05 11:29:59;;;;;;;8.68;4.78;;;7.70;89.70;;;;;;5047685;28;20040;-49
2023/04/05 11:32:43;;;;;;;6.97;5.35;;;7.80;88.30;;;;;;5034134;28;20125;-48
2023/04/05 11:35:16;;;;;;;6.53;4.80;;;7.70;83.90;;;;;;5032618;28;20049;-48
2023/04/05 11:37:55;;;;;;;8.23;5.00;;;7.70;87.00;;;;;;5013925;28;20041;-48
2023/04/05 11:40:26;;;;;;;9.98;4.85;;;7.70;83.50;;;;;;5047802;28;20102;-50
2023/04/05 11:43:06;;;;;;;5.93;4.70;;;7.80;83.80;;;;;;5033645;28;20096;-50
2023/04/05 11:45:35;;;;;;;7.95;5.10;;;7.80;83.00;;;;;;5044508;28;20124;-49
2023/04/05 11:48:07;;;;;;;5.78;4.45;;;7.80;85.00;;;;;;5032884;28;20107;-50
2023/04/05 11:50:36;;;;;;;7.40;4.68;;;8.00;83.40;;;;;;5026445;28;20495;-49
2023/04/05 11:53:08;;;;;;;9.68;5.18;;;8.10;81.70;;;;;;5049560;28;20103;-50
2023/04/05 11:55:36;;;;;;;5.32;4.07;;;8.10;85.80;;;;;;5040588;28;20100;-51
2023/04/05 11:58:36;;;;;;;6.10;4.43;;;8.10;82.30;;;;;;5033512;28;20095;-50
2023/04/05 12:01:08;;;;;;;6.60;4.70;;;8.10;84.30;;;;;;5019923;28;20097;-52
2023/04/05 12:03:36;;;;;;;10.07;4.47;;;8.20;84.40;;;;;;5052981;28;20076;-49
2023/04/05 12:06:04;;;;;;;7.20;4.45;;;8.10;80.60;;;;;;5034026;28;20095;-50
2023/04/05 12:08:39;;;;;;;9.93;4.55;;;8.00;81.70;;;;;;5032707;28;20124;-50
2023/04/05 12:11:08;;;;;;;5.57;3.67;;;8.20;82.80;;;;;;5040580;28;20049;-51
2023/04/05 12:13:35;;;;;;;6.85;4.40;;;8.30;78.50;;;;;;5051241;28;20405;-51
2023/04/05 12:16:04;;;;;;;5.30;4.50;;;8.30;80.30;;;;;;5020972;28;20338;-49
2023/04/05 12:18:33;;;;;;;6.45;4.03;;;8.30;79.40;;;;;;5042202;28;20041;-47
2023/04/05 12:21:05;;;;;;;6.05;4.47;;;8.30;77.20;;;;;;5030836;23;20049;-49
2023/04/05 12:23:34;;;;;;;10.75;4.40;;;8.30;82.50;;;;;;5050819;28;20037;-53
2023/04/05 12:26:01;;;;;;;;;;;8.20;78.50;;;;;;5051760;28;20064;-50
2023/04/05 12:28:54;;;;;;;7.88;4.85;;;8.10;79.40;;;;;;5042586;28;20430;-49
2023/04/05 12:31:42;;;;;;;9.10;4.63;;;8.10;78.10;;;;;;5052890;28;20111;-51
2023/04/05 12:34:10;;;;;;;10.68;4.50;;;8.20;81.60;;;;;;5049434;28;20049;-49
2023/04/05 12:36:40;;;;;;;8.40;4.68;;;8.30;77.80;;;;;;5052766;28;20089;-49
2023/04/05 12:39:08;;;;;;;5.18;4.25;;;8.20;77.80;;;;;;5050476;28;20106;-51
2023/04/05 12:41:36;;;;;;;6.18;4.18;;;8.30;77.60;;;;;;5052173;28;20037;-49
2023/04/05 12:44:26;;;;;;;8.00;4.63;;;8.30;77.90;;;;;;5041641;28;20055;-50
2023/04/05 12:46:59;;;;;;;7.43;4.90;;;8.30;77.40;;;;;;5051012;28;20045;-50
2023/04/05 12:49:27;;;;;;;6.25;4.32;;;8.20;74.40;;;;;;5050685;28;20065;-51
2023/04/05 12:51:53;;;;;;;6.28;4.30;;;8.40;78.80;;;;;;5051676;28;20095;-49
2023/04/05 12:54:22;;;;;;;5.93;3.28;;;8.50;80.50;;;;;;5051133;28;20118;-50
2023/04/05 12:56:53;;;;;;;10.23;3.47;;;8.50;71.00;;;;;;5050619;28;20550;-52
2023/04/05 12:59:20;;;;;;;6.25;4.05;;;8.50;72.90;;;;;;5051820;28;20378;-50
2023/04/05 13:01:47;;;;;;;6.47;4.45;;;8.50;73.90;;;;;;5050438;28;20057;-52
2023/04/05 13:04:14;;;;;;;5.20;3.70;;;8.50;75.70;;;;;;5051660;28;20052;-50
2023/04/05 13:06:47;;;;;;;6.22;4.18;;;8.50;75.10;;;;;;5050644;28;20041;-50
2023/04/05 13:09:14;;;;;;;5.75;3.80;;;8.60;74.60;;;;;;5050788;28;20118;-49